createdAt,value
2023-05-05T00:00:23.083Z,5.90
2023-05-05T00:03:46.109Z,6.50
2023-05-05T00:06:49.227Z,6.40
2023-05-05T00:09:51.796Z,5.80
2023-05-05T00:12:54.513Z,5.30
2023-05-05T00:15:57.326Z,6.80
2023-05-05T00:18:59.994Z,6.00
2023-05-05T00:22:02.657Z,6.30
2023-05-05T00:25:06.268Z,6.20
2023-05-05T00:28:09.218Z,6.20
2023-05-05T00:31:11.857Z,6.20
2023-05-05T00:34:14.450Z,6.80
2023-05-05T00:37:17.430Z,6.00
2023-05-05T00:40:20.093Z,6.70
2023-05-05T00:43:22.676Z,5.90
2023-05-05T00:46:28.128Z,6.50
2023-05-05T00:49:31.430Z,6.30
2023-05-05T00:52:35.078Z,6.80
2023-05-05T00:55:37.862Z,6.00
2023-05-05T00:58:42.128Z,6.40
2023-05-05T01:01:46.039Z,6.50
2023-05-05T01:04:49.123Z,7.00
2023-05-05T01:08:37.400Z,6.40
2023-05-05T01:12:06.913Z,7.00
2023-05-05T01:15:30.210Z,6.60
2023-05-05T01:18:54.053Z,7.30
2023-05-05T01:22:00.767Z,7.10
2023-05-05T01:25:27.126Z,7.60
2023-05-05T01:28:47.994Z,7.10
2023-05-05T01:31:53.851Z,6.40
2023-05-05T01:35:02.024Z,7.50
2023-05-05T01:38:09.622Z,7.30
2023-05-05T01:41:18.240Z,7.30
2023-05-05T01:47:25.239Z,7.90
2023-05-05T01:50:29.063Z,7.50
2023-05-05T01:53:32.986Z,8.00
2023-05-05T01:56:38.891Z,7.90
2023-05-05T01:59:41.772Z,7.50
2023-05-05T02:02:47.798Z,7.90
2023-05-05T02:05:53.167Z,7.90
2023-05-05T02:08:58.437Z,7.60
2023-05-05T02:12:02.427Z,7.90
2023-05-05T02:15:06.204Z,7.70
2023-05-05T02:18:09.972Z,7.30
2023-05-05T02:21:14.334Z,7.20
2023-05-05T02:24:16.856Z,8.10
2023-05-05T02:27:22.224Z,7.70
2023-05-05T02:30:26.017Z,7.40
2023-05-05T02:33:33.326Z,7.20
2023-05-05T02:36:39.598Z,7.30
2023-05-05T02:39:47.453Z,7.50
2023-05-05T02:42:54.582Z,7.80
2023-05-05T02:45:57.226Z,7.30
2023-05-05T02:48:59.922Z,8.30
2023-05-05T02:52:02.786Z,7.50
2023-05-05T02:55:06.610Z,7.90
2023-05-05T02:58:24.876Z,8.00
2023-05-05T03:01:42.528Z,7.90
2023-05-05T03:05:02.729Z,8.10
2023-05-05T03:08:18.302Z,8.60
2023-05-05T03:11:33.174Z,9.00
2023-05-05T03:14:41.048Z,8.50
2023-05-05T03:17:45.110Z,9.50
2023-05-05T03:20:48.655Z,9.30
2023-05-05T03:23:51.244Z,9.40
2023-05-05T03:26:54.051Z,9.00
2023-05-05T03:29:57.150Z,9.20
2023-05-05T03:32:59.799Z,8.10
2023-05-05T03:36:02.480Z,9.00
2023-05-05T03:39:05.033Z,8.80
2023-05-05T03:42:07.613Z,8.50
2023-05-05T03:45:10.402Z,8.30
2023-05-05T03:48:13.149Z,9.10
2023-05-05T03:51:16.517Z,8.00
2023-05-05T03:54:19.081Z,8.80
2023-05-05T03:57:21.952Z,9.10
2023-05-05T04:00:24.576Z,8.60
2023-05-05T04:03:27.419Z,9.30
2023-05-05T04:06:30.155Z,10.00
2023-05-05T04:09:32.821Z,9.50
2023-05-05T04:12:35.592Z,9.50
2023-05-05T04:15:38.814Z,9.30
2023-05-05T04:18:41.435Z,8.80
2023-05-05T04:21:44.090Z,9.20
2023-05-05T04:24:47.374Z,9.20
2023-05-05T04:27:49.947Z,9.70
2023-05-05T04:30:52.855Z,8.70
2023-05-05T04:33:55.571Z,9.20
2023-05-05T04:36:58.275Z,8.90
2023-05-05T04:40:00.900Z,9.80
2023-05-05T04:43:03.399Z,10.10
2023-05-05T04:46:06.061Z,9.40
2023-05-05T04:49:09.400Z,9.10
2023-05-05T04:52:15.881Z,8.90
2023-05-05T04:55:18.528Z,9.30
2023-05-05T04:58:21.133Z,9.30
2023-05-05T05:01:23.773Z,9.10
2023-05-05T05:04:27.470Z,8.30
2023-05-05T05:07:30.045Z,9.00
2023-05-05T05:10:32.639Z,8.70
2023-05-05T05:13:35.191Z,8.70
2023-05-05T05:16:37.807Z,8.50
2023-05-05T05:19:40.427Z,8.80
2023-05-05T05:22:43.058Z,8.20
2023-05-05T05:25:46.110Z,9.20
2023-05-05T05:28:48.952Z,8.60
2023-05-05T05:31:51.595Z,7.90
2023-05-05T05:34:54.160Z,8.80
2023-05-05T05:37:56.692Z,7.60
2023-05-05T05:40:59.209Z,8.20
2023-05-05T05:44:01.885Z,9.00
2023-05-05T05:47:04.495Z,7.80
2023-05-05T05:50:08.245Z,8.20
2023-05-05T05:53:10.983Z,8.10
2023-05-05T05:56:13.668Z,8.30
2023-05-05T05:59:16.333Z,7.40
2023-05-05T06:02:19.261Z,8.10
2023-05-05T06:05:22.027Z,8.40
2023-05-05T06:08:25.304Z,7.70
2023-05-05T06:11:27.898Z,7.70
2023-05-05T06:14:30.671Z,7.10
2023-05-05T06:17:33.296Z,7.50
2023-05-05T06:20:36.009Z,7.30
2023-05-05T06:23:39.058Z,7.70
2023-05-05T06:26:41.969Z,7.40
2023-05-05T06:29:44.621Z,8.00
2023-05-05T06:32:47.205Z,8.60
2023-05-05T06:35:52.108Z,7.70
2023-05-05T06:38:54.635Z,7.40
2023-05-05T06:41:57.232Z,7.30
2023-05-05T06:44:59.762Z,8.00
2023-05-05T06:48:02.404Z,7.70
2023-05-05T06:51:05.127Z,8.30
2023-05-05T06:54:07.799Z,7.70
2023-05-05T06:57:10.661Z,7.60
2023-05-05T07:00:15.075Z,7.30
2023-05-05T07:03:18.032Z,7.20
2023-05-05T07:06:21.010Z,7.60
2023-05-05T07:09:23.573Z,7.20
2023-05-05T07:12:27.875Z,7.70
2023-05-05T07:15:30.639Z,8.10
2023-05-05T07:18:33.206Z,7.20
2023-05-05T07:21:36.729Z,7.50
2023-05-05T07:24:39.365Z,6.80
2023-05-05T07:27:42.039Z,7.40
2023-05-05T07:30:44.689Z,6.80
2023-05-05T07:33:47.266Z,7.70
2023-05-05T07:36:49.917Z,7.20
2023-05-05T07:39:52.575Z,7.30
2023-05-05T07:42:55.121Z,6.60
2023-05-05T07:45:57.771Z,6.10
2023-05-05T07:49:00.431Z,6.40
2023-05-05T07:52:03.153Z,6.20
2023-05-05T07:55:06.329Z,6.60
2023-05-05T07:58:10.964Z,7.10
2023-05-05T08:01:13.696Z,6.40
2023-05-05T08:04:16.288Z,6.30
2023-05-05T08:07:19.017Z,6.00
2023-05-05T08:10:24.599Z,6.40
2023-05-05T08:13:31.292Z,6.20
2023-05-05T08:16:34.570Z,5.80
2023-05-05T08:19:37.271Z,6.50
2023-05-05T08:22:40.832Z,6.00
2023-05-05T08:25:43.741Z,6.10
2023-05-05T08:28:46.996Z,6.10
2023-05-05T08:31:49.753Z,6.30
2023-05-05T08:34:52.430Z,6.40
2023-05-05T08:37:56.026Z,6.40
2023-05-05T08:41:02.058Z,5.60
2023-05-05T08:44:04.689Z,5.40
2023-05-05T08:50:14.450Z,6.00
2023-05-05T08:53:19.863Z,5.90
2023-05-05T08:56:25.919Z,5.50
2023-05-05T08:59:31.549Z,5.80
2023-05-05T09:02:37.267Z,5.10
2023-05-05T09:05:42.206Z,5.10
2023-05-05T09:08:45.246Z,5.30
2023-05-05T09:11:48.448Z,4.70
2023-05-05T09:14:51.016Z,4.60
2023-05-05T09:17:56.633Z,4.60
2023-05-05T09:21:00.345Z,4.80
2023-05-05T09:24:10.497Z,5.20
2023-05-05T09:27:22.875Z,4.70
2023-05-05T09:30:27.200Z,4.90
2023-05-05T09:33:31.247Z,4.10
2023-05-05T09:36:44.468Z,5.40
2023-05-05T09:39:54.593Z,4.60
2023-05-05T09:43:03.104Z,4.80
2023-05-05T09:49:18.372Z,3.90
2023-05-05T09:52:21.021Z,4.70
2023-05-05T09:55:24.714Z,4.60
2023-05-05T09:58:29.741Z,4.40
2023-05-05T10:01:32.548Z,4.30
2023-05-05T10:04:36.130Z,4.80
2023-05-05T10:07:41.191Z,4.90
2023-05-05T10:10:51.835Z,4.20
2023-05-05T10:13:54.459Z,4.30
2023-05-05T10:17:00.932Z,4.70
2023-05-05T10:20:13.002Z,4.20
2023-05-05T10:23:20.402Z,4.20
2023-05-05T10:26:26.854Z,4.70
2023-05-05T10:29:38.727Z,4.60
2023-05-05T10:35:53.774Z,5.00
2023-05-05T10:38:59.608Z,5.30
2023-05-05T10:42:02.408Z,4.60
2023-05-05T10:45:08.548Z,4.10
2023-05-05T10:48:21.469Z,4.20
2023-05-05T10:51:56.043Z,4.50
2023-05-05T10:55:36.886Z,4.40
2023-05-05T10:58:55.483Z,4.70
2023-05-05T11:02:01.354Z,4.70
2023-05-05T11:05:15.309Z,4.20
2023-05-05T11:08:27.453Z,4.70
2023-05-05T11:12:07.555Z,4.50
2023-05-05T11:15:22.346Z,3.80
2023-05-05T11:18:35.997Z,4.00
2023-05-05T11:22:04.323Z,3.80
2023-05-05T11:25:45.529Z,4.20
2023-05-05T11:28:59.883Z,4.30
2023-05-05T11:32:13.797Z,4.20
2023-05-05T11:35:16.843Z,4.10
2023-05-05T11:38:23.338Z,4.40
2023-05-05T11:41:56.664Z,4.10
2023-05-05T11:44:59.632Z,3.70
2023-05-05T11:48:29.726Z,4.60
2023-05-05T11:51:32.487Z,4.10
2023-05-05T11:54:36.946Z,3.90
2023-05-05T11:57:40.067Z,3.70
2023-05-05T12:00:42.744Z,4.00
2023-05-05T12:03:45.989Z,3.90
2023-05-05T12:06:49.165Z,4.30
2023-05-05T12:09:53.452Z,3.90
2023-05-05T12:12:56.195Z,3.60
2023-05-05T12:16:13.222Z,3.60
2023-05-05T12:19:15.921Z,3.60
2023-05-05T12:22:24.417Z,3.90
2023-05-05T12:25:34.869Z,4.10
2023-05-05T12:28:46.624Z,3.60
2023-05-05T12:32:03.915Z,2.90
2023-05-05T12:35:08.173Z,3.70
2023-05-05T12:38:10.881Z,3.80
2023-05-05T12:41:18.276Z,3.90
2023-05-05T12:44:20.938Z,4.00
2023-05-05T12:47:32.107Z,3.90
2023-05-05T12:50:34.867Z,3.70
2023-05-05T12:53:37.533Z,3.90
2023-05-05T12:56:45.574Z,4.20
2023-05-05T12:59:48.464Z,4.00
2023-05-05T13:02:51.394Z,3.20
2023-05-05T13:05:54.232Z,3.10
2023-05-05T13:08:57.211Z,4.20
2023-05-05T13:12:00.170Z,3.80
2023-05-05T13:15:03.464Z,3.40
2023-05-05T13:18:06.210Z,3.60
2023-05-05T13:21:08.921Z,3.10
2023-05-05T13:24:21.267Z,2.80
2023-05-05T13:27:31.307Z,3.40
2023-05-05T13:30:33.846Z,4.20
2023-05-05T13:33:36.799Z,3.30
2023-05-05T13:37:11.260Z,3.40
2023-05-05T13:40:14.057Z,3.20
2023-05-05T13:43:16.669Z,3.10
2023-05-05T13:46:20.311Z,3.50
2023-05-05T13:49:23.071Z,2.90
2023-05-05T13:52:26.087Z,3.50
2023-05-05T13:55:29.712Z,3.50
2023-05-05T13:58:32.299Z,3.80
2023-05-05T14:01:35.753Z,3.90
2023-05-05T14:04:38.496Z,4.10
2023-05-05T14:07:41.259Z,3.80
2023-05-05T14:10:45.412Z,4.00
2023-05-05T14:13:49.966Z,3.50
2023-05-05T14:16:53.001Z,3.80
2023-05-05T14:19:55.808Z,4.50
2023-05-05T14:22:58.787Z,4.20
2023-05-05T14:26:01.487Z,3.70
2023-05-05T14:29:04.056Z,4.40
2023-05-05T14:32:06.627Z,4.20
2023-05-05T14:35:09.397Z,3.40
2023-05-05T14:38:12.131Z,4.20
2023-05-05T14:41:14.973Z,3.40
2023-05-05T14:44:17.743Z,4.20
2023-05-05T14:47:20.508Z,4.30
2023-05-05T14:50:23.395Z,4.30
2023-05-05T14:53:26.825Z,3.80
2023-05-05T14:56:30.144Z,4.00
2023-05-05T14:59:32.809Z,3.60
2023-05-05T15:02:35.447Z,3.50
2023-05-05T15:05:38.126Z,4.10
2023-05-05T15:08:40.707Z,3.60
2023-05-05T15:11:45.114Z,3.60
2023-05-05T15:14:47.773Z,4.00
2023-05-05T15:17:50.345Z,4.70
2023-05-05T15:20:53.014Z,4.30
2023-05-05T15:23:55.937Z,4.00
2023-05-05T15:26:58.644Z,3.90
2023-05-05T15:30:01.415Z,3.80
2023-05-05T15:33:04.093Z,3.90
2023-05-05T15:36:07.299Z,3.90
2023-05-05T15:39:10.015Z,3.50
2023-05-05T15:42:12.676Z,3.30
2023-05-05T15:45:16.678Z,3.00
2023-05-05T15:48:19.748Z,3.20
2023-05-05T15:51:22.312Z,3.30
2023-05-05T15:54:25.091Z,3.00
2023-05-05T15:57:27.696Z,3.30
2023-05-05T16:00:31.537Z,3.50
2023-05-05T16:03:34.418Z,3.60
2023-05-05T16:06:37.175Z,2.80
2023-05-05T16:09:39.764Z,3.10
2023-05-05T16:12:42.361Z,3.40
2023-05-05T16:15:44.977Z,3.40
2023-05-05T16:18:47.831Z,3.50
2023-05-05T16:21:50.407Z,2.90
2023-05-05T16:24:53.164Z,3.20
2023-05-05T16:27:57.601Z,3.40
2023-05-05T16:31:03.478Z,3.00
2023-05-05T16:34:06.582Z,3.30
2023-05-05T16:37:09.252Z,2.70
2023-05-05T16:40:12.359Z,3.00
2023-05-05T16:43:14.987Z,2.70
2023-05-05T16:46:18.308Z,2.60
2023-05-05T16:49:21.238Z,2.90
2023-05-05T16:52:23.800Z,2.80
2023-05-05T16:55:26.386Z,3.50
2023-05-05T16:58:29.056Z,3.10
2023-05-05T17:01:32.181Z,2.90
2023-05-05T17:04:34.893Z,3.50
2023-05-05T17:07:37.537Z,3.60
2023-05-05T17:10:41.515Z,3.10
2023-05-05T17:13:44.202Z,3.00
2023-05-05T17:16:50.854Z,3.60
2023-05-05T17:19:53.621Z,3.30
2023-05-05T17:22:56.494Z,3.60
2023-05-05T17:26:06.029Z,3.30
2023-05-05T17:29:09.276Z,3.40
2023-05-05T17:32:12.972Z,3.60
2023-05-05T17:35:15.645Z,3.40
2023-05-05T17:38:18.166Z,3.30
2023-05-05T17:41:27.117Z,3.90
2023-05-05T17:44:31.490Z,3.70
2023-05-05T17:47:34.107Z,4.00
2023-05-05T17:50:37.057Z,3.40
2023-05-05T17:53:39.622Z,3.60
2023-05-05T17:56:42.385Z,4.30
2023-05-05T17:59:50.167Z,3.20
2023-05-05T18:02:52.950Z,4.20
2023-05-05T18:05:56.318Z,3.70
2023-05-05T18:08:58.920Z,3.80
2023-05-05T18:12:05.336Z,3.50
2023-05-05T18:15:09.335Z,3.30
2023-05-05T18:18:12.224Z,3.50
2023-05-05T18:21:14.870Z,3.90
2023-05-05T18:24:20.449Z,3.10
2023-05-05T18:27:53.488Z,4.30
2023-05-05T18:30:56.422Z,3.60
2023-05-05T18:33:58.982Z,3.30
2023-05-05T18:37:01.653Z,3.60
2023-05-05T18:40:04.914Z,4.10
2023-05-05T18:43:09.848Z,3.30
2023-05-05T18:46:12.719Z,3.30
2023-05-05T18:49:23.232Z,3.80
2023-05-05T18:52:27.563Z,3.60
2023-05-05T18:55:30.167Z,4.00
2023-05-05T18:58:32.990Z,3.30
2023-05-05T19:05:36.121Z,3.00
2023-05-05T19:08:38.820Z,3.30
2023-05-05T19:11:42.944Z,3.60
2023-05-05T19:18:41.252Z,3.20
2023-05-05T19:21:51.894Z,3.20
2023-05-05T19:24:54.461Z,3.80
2023-05-05T19:27:57.023Z,3.70
2023-05-05T19:31:09.103Z,3.40
2023-05-05T19:34:11.665Z,2.80
2023-05-05T19:37:14.305Z,3.20
2023-05-05T19:40:16.815Z,3.40
2023-05-05T19:43:19.662Z,3.20
2023-05-05T19:46:23.892Z,3.60
2023-05-05T19:53:20.160Z,3.50
2023-05-05T19:56:23.956Z,2.90
2023-05-05T20:03:36.841Z,3.60
2023-05-05T20:06:39.680Z,3.50
2023-05-05T20:09:42.199Z,3.70
2023-05-05T20:12:48.973Z,3.10
2023-05-05T20:15:51.785Z,3.00
2023-05-05T20:18:54.438Z,3.20
2023-05-05T20:25:47.368Z,4.00
2023-05-05T20:28:49.928Z,4.10
2023-05-05T20:31:52.567Z,3.30
2023-05-05T20:34:55.535Z,3.60
2023-05-05T20:41:49.184Z,3.80
2023-05-05T20:44:51.733Z,3.60
2023-05-05T20:51:48.144Z,3.80
2023-05-05T20:54:50.713Z,3.40
2023-05-05T20:57:53.274Z,3.00
2023-05-05T21:00:56.127Z,3.20
2023-05-05T21:04:00.429Z,3.50
2023-05-05T21:07:03.079Z,3.50
2023-05-05T21:10:06.330Z,3.50
2023-05-05T21:13:08.983Z,3.50
2023-05-05T21:16:19.540Z,3.60
2023-05-05T21:19:22.295Z,4.10
2023-05-05T21:28:37.790Z,4.20
2023-05-05T21:35:19.172Z,3.80
2023-05-05T21:38:32.079Z,3.60
2023-05-05T21:42:30.080Z,3.80
2023-05-05T21:45:32.672Z,3.90
2023-05-05T21:48:35.347Z,4.00
2023-05-05T21:52:04.974Z,3.70
2023-05-05T21:58:10.869Z,3.50
2023-05-05T22:01:13.482Z,3.90
2023-05-05T22:04:16.169Z,4.00
2023-05-05T22:07:19.151Z,3.80
2023-05-05T22:10:21.734Z,3.80
2023-05-05T22:13:24.396Z,3.50
2023-05-05T22:16:29.371Z,3.90
2023-05-05T22:19:32.053Z,3.70
2023-05-05T22:22:34.819Z,3.80
2023-05-05T22:25:37.410Z,3.70
2023-05-05T22:28:39.968Z,3.40
2023-05-05T22:31:42.576Z,3.80
2023-05-05T22:34:45.118Z,3.90
2023-05-05T22:38:03.134Z,3.90
2023-05-05T22:41:06.574Z,3.50
2023-05-05T22:44:09.099Z,3.70
2023-05-05T22:47:11.703Z,3.50
2023-05-05T22:50:14.586Z,3.70
2023-05-05T22:53:17.342Z,3.90
2023-05-05T22:56:19.833Z,3.80
2023-05-05T22:59:22.403Z,3.80
2023-05-05T23:02:26.767Z,3.80
2023-05-05T23:05:29.554Z,3.70
2023-05-05T23:08:32.215Z,3.70
2023-05-05T23:11:36.109Z,4.20
2023-05-05T23:14:38.778Z,4.60
2023-05-05T23:17:41.407Z,3.40
2023-05-05T23:20:44.119Z,3.20
2023-05-05T23:23:46.714Z,4.00
2023-05-05T23:26:49.304Z,3.60
2023-05-05T23:29:51.915Z,3.30
2023-05-05T23:32:54.989Z,3.50
2023-05-05T23:35:57.644Z,3.20
2023-05-05T23:39:00.337Z,3.80
2023-05-05T23:42:02.971Z,3.50
2023-05-05T23:45:10.293Z,3.80
2023-05-05T23:48:13.109Z,3.30
2023-05-05T23:51:15.905Z,3.40
2023-05-05T23:54:18.748Z,3.70
2023-05-05T23:57:21.235Z,3.90
